createdAt,value
2023-03-03T00:07:10.219Z,-0.28
2023-03-03T00:14:44.109Z,-0.43
2023-03-03T00:30:24.908Z,-0.49
2023-03-03T00:38:02.381Z,-0.40
2023-03-03T00:45:44.648Z,-0.35
2023-03-03T00:53:21.833Z,-0.49
2023-03-03T01:00:59.078Z,-0.46
2023-03-03T01:08:34.759Z,-0.47
2023-03-03T01:16:09.533Z,-0.47
2023-03-03T01:23:45.082Z,-0.44
2023-03-03T01:31:19.111Z,-0.41
2023-03-03T01:38:54.453Z,-0.53
2023-03-03T01:46:56.629Z,-0.50
2023-03-03T01:54:38.606Z,-0.63
2023-03-03T02:02:12.858Z,-0.69
2023-03-03T02:09:56.376Z,-0.61
2023-03-03T02:17:30.324Z,-0.57
2023-03-03T02:33:00.268Z,-0.65
2023-03-03T02:40:39.530Z,-0.69
2023-03-03T02:48:14.980Z,-0.82
2023-03-03T03:03:41.679Z,-0.57
2023-03-03T03:11:15.626Z,-0.70
2023-03-03T03:18:51.840Z,-0.70
2023-03-03T03:34:18.557Z,-0.79
2023-03-03T03:41:52.618Z,-0.79
2023-03-03T03:49:28.077Z,-0.74
2023-03-03T03:57:01.980Z,-0.71
2023-03-03T04:04:37.584Z,-0.70
2023-03-03T04:12:12.618Z,-0.72
2023-03-03T04:19:48.413Z,-0.65
2023-03-03T04:27:22.635Z,-0.64
2023-03-03T04:35:07.272Z,-0.60
2023-03-03T04:42:42.324Z,-0.56
2023-03-03T04:50:17.802Z,-0.55
2023-03-03T04:57:51.842Z,-0.52
2023-03-03T05:13:18.545Z,-0.52
2023-03-03T05:20:54.373Z,-0.54
2023-03-03T05:28:28.369Z,-0.55
2023-03-03T05:36:03.404Z,-0.50
2023-03-03T05:43:37.944Z,-0.47
2023-03-03T05:51:13.288Z,-0.50
2023-03-03T05:58:47.299Z,-0.55
2023-03-03T06:06:22.563Z,-0.56
2023-03-03T06:13:56.395Z,-0.62
2023-03-03T06:21:31.829Z,-0.64
2023-03-03T06:29:05.629Z,-0.60
2023-03-03T06:36:41.078Z,-0.60
2023-03-03T06:44:14.963Z,-0.56
2023-03-03T06:51:50.657Z,-0.57
2023-03-03T06:59:24.904Z,-0.59
2023-03-03T07:07:07.177Z,-0.61
2023-03-03T07:14:45.107Z,-0.58
2023-03-03T07:22:22.439Z,-0.57
2023-03-03T07:30:03.122Z,-0.65
2023-03-03T07:37:40.437Z,-0.65
2023-03-03T07:45:28.221Z,-0.53
2023-03-03T07:53:06.479Z,-0.64
2023-03-03T08:01:13.044Z,-0.54
2023-03-03T08:08:48.405Z,-0.43
2023-03-03T08:16:38.749Z,-0.36
2023-03-03T08:24:14.012Z,-0.23
2023-03-03T08:31:48.197Z,-0.23
2023-03-03T08:39:23.923Z,-0.25
2023-03-03T08:46:58.201Z,-0.12
2023-03-03T08:54:33.509Z,0.04
2023-03-03T09:02:08.090Z,0.15
2023-03-03T09:09:43.357Z,0.06
2023-03-03T09:17:26.609Z,0.21
2023-03-03T09:25:04.391Z,0.39
2023-03-03T09:32:40.579Z,0.49
2023-03-03T09:40:46.930Z,0.49
2023-03-03T09:48:52.437Z,0.53
2023-03-03T09:56:35.581Z,0.60
2023-03-03T10:04:37.724Z,0.69
2023-03-03T10:12:22.730Z,0.82
2023-03-03T10:20:13.549Z,0.83
2023-03-03T10:28:02.696Z,0.99
2023-03-03T10:36:07.721Z,1.14
2023-03-03T10:44:11.817Z,1.20
2023-03-03T10:52:03.796Z,1.35
2023-03-03T10:59:51.130Z,1.36
2023-03-03T11:07:34.833Z,1.44
2023-03-03T11:15:29.135Z,1.47
2023-03-03T11:23:16.702Z,1.50
2023-03-03T11:31:11.410Z,1.66
2023-03-03T11:38:55.282Z,1.65
2023-03-03T11:46:33.706Z,1.78
2023-03-03T11:54:16.751Z,1.84
2023-03-03T12:01:54.398Z,1.91
2023-03-03T12:09:41.484Z,2.03
2023-03-03T12:17:30.277Z,2.12
2023-03-03T12:25:21.002Z,2.18
2023-03-03T12:33:13.410Z,2.29
2023-03-03T12:40:59.185Z,2.32
2023-03-03T12:48:41.716Z,2.36
2023-03-03T12:56:24.883Z,2.45
2023-03-03T13:04:07.006Z,2.50
2023-03-03T13:11:56.840Z,2.54
2023-03-03T13:19:38.242Z,2.59
2023-03-03T13:27:16.728Z,2.65
2023-03-03T13:34:57.142Z,2.77
2023-03-03T13:42:40.427Z,2.86
2023-03-03T13:58:27.418Z,2.92
2023-03-03T14:06:03.507Z,3.00
2023-03-03T14:13:47.781Z,3.12
2023-03-03T14:21:28.174Z,3.23
2023-03-03T14:29:21.567Z,3.32
2023-03-03T14:37:09.975Z,3.38
2023-03-03T14:44:56.047Z,3.42
2023-03-03T14:52:31.798Z,3.43
2023-03-03T15:00:28.697Z,3.49
2023-03-03T15:16:11.799Z,3.58
2023-03-03T15:23:57.071Z,3.63
2023-03-03T15:31:43.667Z,3.67
2023-03-03T15:39:25.492Z,3.72
2023-03-03T15:47:20.807Z,3.82
2023-03-03T15:55:01.641Z,3.88
2023-03-03T16:02:48.408Z,3.91
2023-03-03T16:18:35.411Z,3.94
2023-03-03T16:26:17.820Z,3.92
2023-03-03T16:34:02.366Z,3.89
2023-03-03T16:41:48.534Z,3.89
2023-03-03T16:49:29.961Z,3.88
2023-03-03T16:57:12.664Z,3.85
2023-03-03T17:04:57.886Z,3.82
2023-03-03T17:12:48.456Z,3.81
2023-03-03T17:20:33.959Z,3.75
2023-03-03T17:28:26.795Z,3.71
2023-03-03T17:36:19.377Z,3.67
2023-03-03T17:44:02.138Z,3.59
2023-03-03T17:51:49.506Z,3.58
2023-03-03T17:59:42.355Z,3.53
2023-03-03T18:07:36.691Z,3.46
2023-03-03T18:15:29.200Z,3.43
2023-03-03T18:23:29.788Z,3.41
2023-03-03T18:31:05.113Z,3.42
2023-03-03T18:38:44.758Z,3.45
2023-03-03T18:46:51.269Z,3.44
2023-03-03T18:54:33.282Z,3.47
2023-03-03T19:02:19.809Z,3.49
2023-03-03T19:10:31.695Z,3.53
2023-03-03T19:18:14.686Z,3.56
2023-03-03T19:26:20.317Z,3.56
2023-03-03T19:33:57.222Z,3.59
2023-03-03T19:41:46.915Z,3.59
2023-03-03T19:57:42.007Z,3.63
2023-03-03T20:05:23.025Z,3.65
2023-03-03T20:13:14.356Z,3.66
2023-03-03T20:21:01.122Z,3.65
2023-03-03T20:29:02.033Z,3.61
2023-03-03T20:36:46.902Z,3.57
2023-03-03T20:52:29.355Z,3.54
2023-03-03T21:00:14.709Z,3.54
2023-03-03T21:07:54.485Z,3.53
2023-03-03T21:15:33.961Z,3.55
2023-03-03T21:23:11.895Z,3.55
2023-03-03T21:31:08.864Z,3.54
2023-03-03T21:38:43.756Z,3.53
2023-03-03T21:46:23.485Z,3.52
2023-03-03T21:53:57.534Z,3.51
2023-03-03T22:01:33.166Z,3.46
2023-03-03T22:09:08.005Z,3.39
2023-03-03T22:16:43.687Z,3.35
2023-03-03T22:24:18.398Z,3.31
2023-03-03T22:31:53.710Z,3.26
2023-03-03T22:39:27.882Z,3.23
2023-03-03T22:47:03.090Z,3.20
2023-03-03T22:54:37.021Z,3.16
2023-03-03T23:10:30.405Z,3.03
2023-03-03T23:18:22.697Z,2.93
2023-03-03T23:26:00.953Z,2.85
2023-03-03T23:34:02.374Z,2.75
2023-03-03T23:49:40.022Z,2.57
2023-03-03T23:57:23.637Z,2.46
